createdAt,value
2022-09-20T00:03:16.117Z,45.15
2022-09-20T00:08:15.314Z,45.22
2022-09-20T00:13:15.123Z,45.30
2022-09-20T00:18:09.151Z,45.20
2022-09-20T00:23:02.740Z,45.10
2022-09-20T00:27:56.495Z,44.96
2022-09-20T00:32:49.055Z,45.19
2022-09-20T00:37:43.679Z,45.12
2022-09-20T00:42:36.942Z,45.02
2022-09-20T00:47:38.706Z,44.76
2022-09-20T00:52:33.396Z,44.74
2022-09-20T00:57:26.865Z,44.68
2022-09-20T01:03:00.468Z,44.78
2022-09-20T01:07:55.650Z,44.90
2022-09-20T01:12:50.772Z,44.71
2022-09-20T01:17:52.436Z,44.69
2022-09-20T01:23:02.268Z,44.36
2022-09-20T01:27:56.136Z,44.48
2022-09-20T01:33:07.768Z,45.17
2022-09-20T01:38:38.664Z,44.17
2022-09-20T01:43:43.892Z,44.06
2022-09-20T01:48:43.216Z,43.62
2022-09-20T01:54:09.011Z,43.84
2022-09-20T01:59:32.815Z,43.42
2022-09-20T02:05:27.734Z,43.20
2022-09-20T02:10:41.643Z,43.29
2022-09-20T02:15:50.130Z,43.17
2022-09-20T02:20:55.319Z,43.21
2022-09-20T02:26:06.480Z,43.18
2022-09-20T02:31:31.072Z,43.13
2022-09-20T02:36:53.106Z,42.99
2022-09-20T02:42:18.219Z,43.32
2022-09-20T02:47:22.910Z,43.43
2022-09-20T02:52:39.411Z,43.29
2022-09-20T02:57:51.982Z,43.68
2022-09-20T03:03:14.647Z,43.33
2022-09-20T03:08:13.536Z,43.20
2022-09-20T03:13:31.027Z,43.16
2022-09-20T03:18:27.214Z,43.02
2022-09-20T03:23:25.840Z,42.98
2022-09-20T03:28:56.174Z,42.99
2022-09-20T03:34:10.210Z,42.81
2022-09-20T03:39:15.317Z,42.77
2022-09-20T03:44:15.178Z,42.98
2022-09-20T03:49:26.701Z,42.65
2022-09-20T03:55:03.280Z,42.79
2022-09-20T04:00:14.542Z,43.18
2022-09-20T04:05:24.936Z,42.54
2022-09-20T04:10:42.359Z,42.60
2022-09-20T04:16:10.595Z,42.23
2022-09-20T04:21:05.963Z,42.37
2022-09-20T04:26:01.563Z,42.66
2022-09-20T04:31:03.570Z,42.39
2022-09-20T04:36:31.723Z,42.37
2022-09-20T04:41:53.226Z,42.42
2022-09-20T04:47:25.623Z,42.45
2022-09-20T04:53:04.196Z,42.08
2022-09-20T04:58:27.540Z,42.61
2022-09-20T05:03:26.739Z,42.54
2022-09-20T05:08:45.817Z,42.88
2022-09-20T05:14:13.947Z,43.04
2022-09-20T05:19:13.136Z,43.46
2022-09-20T05:24:38.852Z,43.79
2022-09-20T05:29:53.555Z,43.83
2022-09-20T05:35:02.226Z,44.00
2022-09-20T05:40:16.656Z,44.13
2022-09-20T05:45:40.881Z,43.36
2022-09-20T05:51:03.092Z,42.57
2022-09-20T05:56:21.269Z,41.43
2022-09-20T06:01:38.415Z,41.06
2022-09-20T06:06:52.950Z,40.49
2022-09-20T06:11:54.964Z,40.30
2022-09-20T06:17:02.302Z,41.62
2022-09-20T06:21:59.881Z,40.55
2022-09-20T06:27:03.759Z,40.64
2022-09-20T06:31:57.047Z,40.77
2022-09-20T06:37:18.238Z,41.86
2022-09-20T06:42:11.409Z,41.47
2022-09-20T06:47:09.004Z,41.65
2022-09-20T06:52:23.823Z,41.36
2022-09-20T06:57:20.595Z,41.53
2022-09-20T07:02:14.635Z,41.31
2022-09-20T07:07:09.721Z,41.54
2022-09-20T07:12:04.688Z,41.88
2022-09-20T07:16:58.018Z,41.96
2022-09-20T07:21:52.351Z,41.90
2022-09-20T07:27:02.941Z,41.83
2022-09-20T07:31:57.375Z,41.73
2022-09-20T07:36:50.856Z,41.61
2022-09-20T07:41:51.444Z,41.95
2022-09-20T07:46:48.668Z,41.41
2022-09-20T07:51:41.903Z,41.57
2022-09-20T07:56:35.385Z,41.59
2022-09-20T08:01:28.663Z,41.59
2022-09-20T08:06:22.639Z,41.44
2022-09-20T08:11:18.715Z,41.43
2022-09-20T08:16:15.050Z,41.21
2022-09-20T08:21:10.326Z,41.40
2022-09-20T08:26:05.445Z,41.29
2022-09-20T08:31:08.116Z,41.21
2022-09-20T08:36:01.716Z,41.39
2022-09-20T08:40:58.928Z,41.96
2022-09-20T08:45:52.623Z,44.61
2022-09-20T08:50:47.824Z,46.97
2022-09-20T08:55:42.206Z,47.79
2022-09-20T09:00:38.005Z,49.45
2022-09-20T09:05:50.068Z,49.14
2022-09-20T09:10:56.448Z,51.00
2022-09-20T09:15:57.323Z,51.52
2022-09-20T09:20:51.497Z,51.90
2022-09-20T09:25:45.519Z,52.27
2022-09-20T09:30:42.931Z,51.72
2022-09-20T09:35:37.725Z,51.05
2022-09-20T09:40:33.009Z,52.36
2022-09-20T09:45:41.782Z,52.92
2022-09-20T09:50:35.715Z,53.47
2022-09-20T09:55:38.834Z,53.38
2022-09-20T10:00:34.582Z,53.26
2022-09-20T10:05:40.060Z,53.45
2022-09-20T10:10:50.059Z,53.37
2022-09-20T10:16:04.409Z,53.92
2022-09-20T10:21:41.810Z,53.83
2022-09-20T10:26:59.650Z,53.13
2022-09-20T10:32:07.394Z,53.39
2022-09-20T10:37:02.131Z,53.63
2022-09-20T10:42:15.554Z,53.74
2022-09-20T10:47:22.719Z,53.95
2022-09-20T10:52:36.761Z,53.55
2022-09-20T10:57:50.887Z,53.06
2022-09-20T11:03:12.578Z,52.57
2022-09-20T11:08:23.068Z,52.45
2022-09-20T11:13:27.526Z,53.40
2022-09-20T11:18:25.424Z,54.43
2022-09-20T11:23:28.306Z,55.72
2022-09-20T11:28:21.551Z,54.72
2022-09-20T11:33:30.579Z,54.72
2022-09-20T11:38:29.073Z,53.66
2022-09-20T11:43:26.927Z,53.58
2022-09-20T11:48:28.320Z,52.69
2022-09-20T11:53:39.172Z,47.81
2022-09-20T11:58:34.291Z,48.09
2022-09-20T12:03:39.355Z,48.54
2022-09-20T12:08:35.604Z,46.61
2022-09-20T12:13:29.947Z,47.01
2022-09-20T12:18:55.048Z,45.21
2022-09-20T12:23:54.067Z,46.44
2022-09-20T12:28:56.181Z,46.47
2022-09-20T12:34:01.876Z,45.17
2022-09-20T12:38:59.220Z,45.25
2022-09-20T12:43:55.256Z,44.80
2022-09-20T12:48:48.621Z,45.03
2022-09-20T12:53:41.875Z,45.79
2022-09-20T12:58:36.551Z,44.20
2022-09-20T13:03:47.728Z,45.34
2022-09-20T13:08:43.699Z,45.35
2022-09-20T13:13:59.824Z,45.41
2022-09-20T13:19:05.862Z,44.14
2022-09-20T13:24:00.108Z,45.08
2022-09-20T13:28:59.116Z,42.81
2022-09-20T13:33:52.849Z,43.57
2022-09-20T13:38:48.466Z,43.70
2022-09-20T13:43:42.059Z,44.67
2022-09-20T13:48:35.680Z,46.07
2022-09-20T13:53:49.953Z,45.25
2022-09-20T13:58:43.252Z,46.14
2022-09-20T14:03:37.775Z,46.00
2022-09-20T14:08:36.691Z,46.25
2022-09-20T14:13:32.211Z,45.68
2022-09-20T14:18:26.182Z,45.43
2022-09-20T14:23:27.318Z,45.49
2022-09-20T14:28:26.762Z,44.58
2022-09-20T14:33:22.070Z,44.56
2022-09-20T14:38:16.665Z,44.91
2022-09-20T14:43:32.049Z,44.63
2022-09-20T14:48:25.237Z,44.44
2022-09-20T14:53:27.573Z,43.91
2022-09-20T14:58:21.552Z,43.17
2022-09-20T15:03:18.002Z,42.86
2022-09-20T15:08:16.339Z,42.76
2022-09-20T15:13:11.952Z,42.98
2022-09-20T15:18:13.560Z,42.87
2022-09-20T15:23:07.184Z,42.50
2022-09-20T15:28:01.675Z,42.62
2022-09-20T15:32:57.668Z,42.10
2022-09-20T15:37:53.456Z,41.29
2022-09-20T15:42:47.888Z,41.55
2022-09-20T15:47:42.147Z,39.20
2022-09-20T15:52:37.590Z,38.98
2022-09-20T15:57:34.239Z,38.68
2022-09-20T16:02:28.089Z,39.25
2022-09-20T16:07:43.472Z,39.54
2022-09-20T16:12:36.766Z,40.17
2022-09-20T16:17:48.915Z,40.60
2022-09-20T16:22:42.868Z,41.31
2022-09-20T16:27:36.784Z,40.73
2022-09-20T16:32:31.150Z,41.26
2022-09-20T16:37:25.576Z,42.02
2022-09-20T16:42:19.504Z,42.06
2022-09-20T16:47:23.024Z,41.70
2022-09-20T16:52:16.501Z,41.40
2022-09-20T16:57:10.132Z,40.94
2022-09-20T17:02:03.733Z,40.68
2022-09-20T17:06:57.752Z,40.12
2022-09-20T17:11:52.150Z,39.91
2022-09-20T17:16:50.063Z,39.86
2022-09-20T17:21:49.772Z,39.37
2022-09-20T17:26:45.585Z,38.89
2022-09-20T17:31:40.471Z,38.88
2022-09-20T17:36:51.547Z,38.79
2022-09-20T17:41:45.736Z,38.98
2022-09-20T17:46:40.846Z,38.88
2022-09-20T17:51:37.189Z,38.55
2022-09-20T17:56:32.176Z,39.30
2022-09-20T18:01:27.990Z,39.71
2022-09-20T18:06:30.013Z,39.08
2022-09-20T18:11:27.535Z,39.12
2022-09-20T18:16:25.239Z,39.33
2022-09-20T18:21:22.999Z,39.61
2022-09-20T18:26:25.098Z,43.18
2022-09-20T18:31:19.636Z,45.97
2022-09-20T18:36:13.595Z,46.42
2022-09-20T18:41:07.350Z,45.09
2022-09-20T18:46:01.398Z,48.07
2022-09-20T18:51:03.672Z,48.34
2022-09-20T18:56:06.640Z,48.35
2022-09-20T19:01:33.657Z,50.33
2022-09-20T19:06:33.238Z,49.75
2022-09-20T19:11:56.175Z,50.24
2022-09-20T19:16:57.095Z,50.67
2022-09-20T19:21:59.602Z,51.95
2022-09-20T19:26:55.236Z,52.64
2022-09-20T19:31:52.650Z,50.69
2022-09-20T19:36:54.910Z,51.54
2022-09-20T19:42:30.278Z,51.69
2022-09-20T19:47:58.795Z,52.09
2022-09-20T19:52:58.850Z,53.55
2022-09-20T19:57:55.779Z,52.97
2022-09-20T20:02:49.493Z,53.37
2022-09-20T20:08:05.147Z,54.09
2022-09-20T20:13:40.187Z,53.32
2022-09-20T20:18:51.728Z,53.02
2022-09-20T20:24:05.246Z,51.59
2022-09-20T20:28:58.593Z,53.30
2022-09-20T20:33:52.494Z,53.53
2022-09-20T20:38:49.954Z,53.70
2022-09-20T20:43:43.902Z,53.53
2022-09-20T20:48:38.680Z,53.37
2022-09-20T20:53:40.893Z,53.18
2022-09-20T20:58:36.735Z,53.25
2022-09-20T21:03:31.535Z,53.58
2022-09-20T21:08:25.068Z,52.84
2022-09-20T21:13:18.352Z,52.31
2022-09-20T21:18:11.864Z,52.61
2022-09-20T21:23:05.903Z,53.39
2022-09-20T21:27:59.714Z,53.00
2022-09-20T21:32:57.387Z,53.03
2022-09-20T21:37:51.366Z,52.18
2022-09-20T21:42:45.616Z,52.49
2022-09-20T21:47:39.893Z,52.52
2022-09-20T21:52:33.788Z,52.21
2022-09-20T21:57:29.209Z,51.84
2022-09-20T22:02:23.791Z,51.47
2022-09-20T22:07:17.171Z,51.45
2022-09-20T22:12:11.069Z,51.13
2022-09-20T22:17:06.155Z,51.43
2022-09-20T22:22:04.320Z,51.24
2022-09-20T22:26:58.165Z,50.81
2022-09-20T22:31:52.047Z,50.55
2022-09-20T22:36:45.650Z,50.58
2022-09-20T22:41:41.904Z,50.24
2022-09-20T22:46:35.370Z,49.51
2022-09-20T22:51:31.824Z,49.06
2022-09-20T22:56:29.950Z,48.50
2022-09-20T23:01:22.847Z,48.64
2022-09-20T23:06:24.429Z,48.40
2022-09-20T23:11:18.822Z,48.25
2022-09-20T23:16:14.794Z,48.34
2022-09-20T23:21:09.535Z,47.80
2022-09-20T23:26:07.895Z,47.16
2022-09-20T23:31:06.388Z,46.68
2022-09-20T23:35:59.514Z,47.00
2022-09-20T23:40:53.143Z,46.77
2022-09-20T23:45:47.457Z,46.74
2022-09-20T23:50:44.017Z,46.95
2022-09-20T23:55:37.344Z,46.42
